Rogers Spring, Nevada Weather observations

Data are for 10 minute period ending at time listed.
 Day   Time   Solar   Ave.   Ave.  Ave.  Vector  Max.   Baro.   Total    
  of    of     Rad.   Air    Rel.  Wind   Wind   Wind  Press.  Precip.   
Year   Day            Temp.  Hum.  Speed  Dir.   Gust                    
2016   (PST)  Kw/m2    F      %     mph   deg.    mph    mb.     in.     
-------------------------------------------------------------------------
 206   15:50   0.43  108.6     6    8.7   154    17.0   928.2    0.00 
 206   16:00   0.41  108.6     5    7.7   170    14.2   928.2    0.00 
 206   16:10   0.38  108.6     5    8.1   173    15.9   928.1    0.00 
 206   16:20   0.36  108.7     5    8.1   168    14.8   928.0    0.00 
 206   16:30   0.34  108.1     5    9.2   158    19.7   928.0    0.00 
 206   16:40   0.30  107.9     5    8.1   163    15.6   927.9    0.00 
 206   16:50   0.28  107.6     5    8.8   157    15.1   927.8    0.00 
 206   17:00   0.25  107.4     5    9.2   163    16.7   927.7    0.00 
 206   17:10   0.22  107.1     5    8.0   161    13.8   927.7    0.00 
 206   17:20   0.20  106.8     6    7.5   165    14.2   927.7    0.00 
 206   17:30   0.17  106.4     6    7.7   165    13.1   927.8    0.00 
 206   17:40   0.14  105.7     6    7.4   164    14.5   927.8    0.00 
 206   17:50   0.12  105.4     6    6.7   159    12.9   927.8    0.00 
 206   18:00   0.11  104.6     6    5.8   162    12.1   927.8    0.00 
 206   18:10   0.09  103.6     7    4.6   157     7.9   927.8    0.00 
 206   18:20   0.07  102.6     7    4.6   157     9.6   927.9    0.00 
 206   18:30   0.06  101.9     7    5.3   157     8.8   927.8    0.00 
 206   18:40   0.04  100.8     7    4.3   150     8.6   927.7    0.00 
 206   18:50   0.02  100.0     7    5.6   161    11.8   927.8    0.00 
 206   19:00   0.01   98.3     7    4.3   169     7.4   927.8    0.00 
 206   19:10   0.00   96.2     7    4.0   171     6.9   927.7    0.00 
 206   19:20   0.00   94.8     7    3.6   162     6.1   927.6    0.00 
 206   19:30   0.00   93.0     8    3.3   159     5.6   927.6    0.00 
 206   19:40   0.00   92.2     8    3.5   160     5.5   927.6    0.00 
 206   19:50   0.00   92.4     8    4.2   171     8.2   927.6    0.00 
 206   20:00   0.00   93.2     8    3.6   155     6.5   927.7    0.00 
 206   20:10   0.00   91.3     9    3.9   152     6.0   927.7    0.00 
 206   20:20   0.00   90.9     9    4.1   157     6.6   927.8    0.00 
 206   20:30   0.00   90.4     9    3.7   163     5.8   927.9    0.00 
 206   20:40   0.00   90.4     9    4.2   164     6.7   928.0    0.00 
 206   20:50   0.00   90.8     9    4.1   168     7.1   928.0    0.00 
 206   21:00   0.00   91.6     9    4.7   186     9.4   928.0    0.00 
 206   21:10   0.00   92.4     9    4.8   173     8.3   928.1    0.00 
 206   21:20   0.00   91.1     9    3.8   150     7.2   928.2    0.00 
 206   21:30   0.00   91.6     9    4.6   151     8.1   928.3    0.00 
 206   21:40   0.00   93.1     8    5.2   156    10.1   928.3    0.00 
 206   21:50   0.00   94.0     8    5.3   162    10.2   928.3    0.00 
 206   22:00   0.00   93.3     8    4.8   165    10.2   928.3    0.00 
 206   22:10   0.00   93.3     9    5.4   168    12.1   928.3    0.00 
 206   22:20   0.00   93.2     9    5.3   164    10.9   928.4    0.00 
 206   22:30   0.00   91.9     9    3.7   139     9.6   928.4    0.00 
 206   22:40   0.00   91.2     9    3.7   136     9.1   928.4    0.00 
 206   22:50   0.00   92.0     9    4.2   144     7.6   928.5    0.00 
 206   23:00   0.00   90.7    10    3.6   144     6.4   928.6    0.00 
 206   23:10   0.00   90.8    10    4.8   144     9.2   928.7    0.00 
 206   23:20   0.00   90.9    10    3.5   147     7.3   928.7    0.00 
 206   23:30   0.00   90.8    10    3.7   146     7.0   928.9    0.00 
 206   23:40   0.00   91.4    10    4.9   157     9.3   929.0    0.00 
 206   23:50   0.00   90.5    10    4.2   164     8.3   929.0    0.00 
 207    0:00   0.00   89.8    11    5.3   156     9.0   929.0    0.00 
 207    0:10   0.00   89.5    11    4.5   156     9.5   929.0    0.00 
 207    0:20   0.00   88.3    11    3.3   169     7.3   929.2    0.00 
 207    0:30   0.00   87.4    12    3.5   170     8.0   929.3    0.00 
 207    0:40   0.00   88.3    11    3.4   182     8.3   929.4    0.00 
 207    0:50   0.00   85.5    12    3.0   177     6.5   929.5    0.00 
 207    1:00   0.00   83.7    13    2.1   188     5.1   929.6    0.00 
 207    1:10   0.00   84.3    13    3.6   164     8.0   929.6    0.00 
 207    1:20   0.00   86.5    12    5.0   164    11.5   929.7    0.00 
 207    1:30   0.00   86.1    12    3.3   168     6.6   929.7    0.00 
 207    1:40   0.00   86.4    12    4.6   169     8.8   929.8    0.00 
 207    1:50   0.00   87.2    12    6.1   163    12.0   929.8    0.00 
 207    2:00   0.00   87.3    12    5.5   166    11.5   929.8    0.00 
 207    2:10   0.00   85.2    13    4.3   199    11.0   930.0    0.00 
 207    2:20   0.00   81.9    14    4.4   201     8.0   930.0    0.00 
 207    2:30   0.00   81.0    15    3.5   197     6.2   930.1    0.00 
 207    2:40   0.00   80.5    16    3.6   198     5.6   930.2    0.00 
 207    2:50   0.00   79.4    16    2.2   196     4.6   930.3    0.00 
 207    3:00   0.00   78.8    17    1.3   189     5.7   930.4    0.00 
 207    3:10   0.00   78.4    17    2.4   173     6.5   930.5    0.00 
 207    3:20   0.00   80.5    16    3.2   171     7.2   930.7    0.00 
 207    3:30   0.00   79.8    17    0.3   227     3.1   930.8    0.00 
 207    3:40   0.00   75.9    21    0.2   119     1.2   930.9    0.00 
 207    3:50   0.00   72.1    25    0.5    14     1.5   930.9    0.00 
 207    4:00   0.00   72.2    24    0.9    65     2.4   930.9    0.00 
 207    4:10   0.00   72.2    25    2.0    98     2.7   931.0    0.00 
 207    4:20   0.00   75.6    21    2.4   132     3.6   931.1    0.00 
 207    4:30   0.00   76.7    20    2.5   134     3.7   931.2    0.00 
 207    4:40   0.00   77.1    19    2.6   146     4.6   931.3    0.00 
 207    4:50   0.00   75.5    22    1.4   260     3.1   931.4    0.00 
 207    5:00   0.00   69.1    30    1.1   298     3.0   931.6    0.00 
 207    5:10   0.00   68.0    31    0.4   199     1.4   931.7    0.00 
 207    5:20   0.00   69.1    31    0.1   186     0.9   931.7    0.00 
 207    5:30   0.00   68.6    33    0.5   184     1.5   931.8    0.00 
 207    5:40   0.00   68.6    34    0.6   276     2.2   931.9    0.00 
 207    5:50   0.00   69.4    38    1.4   267     3.1   932.1    0.00 
 207    6:00   0.00   72.7    31    1.8   165     2.6   932.1    0.00 
 207    6:10   0.00   75.0    31    1.1   179     2.2   932.3    0.00 
 207    6:20   0.00   77.3    30    1.0   173     2.4   932.4    0.00 
 207    6:30   0.00   80.1    24    2.2   173     5.0   932.4    0.00 
 207    6:40   0.00   83.3    20    2.7   193     4.9   932.6    0.00 
 207    6:50   0.00   84.5    19    2.9   202     5.0   932.7    0.00 
 207    7:00   0.06   85.5    20    1.8   197     4.2   932.7    0.00 
 207    7:10   0.15   84.5    26    1.6   291     2.5   932.8    0.00 
 207    7:20   0.00   84.5    24    2.6   250     5.0   932.7    0.00 
 207    7:30   0.00   85.9    21    3.0   241     5.1   932.6    0.00 
 207    7:40   0.00   87.8    19    2.0   232     3.7   932.7    0.00 
 207    7:50   0.06   90.1    16    3.1   187     4.9   932.6    0.00 
 207    8:00   0.29   91.2    14    2.9   193     7.0   932.5    0.00 
 207    8:10   0.34   92.4    14    2.6   189     6.3   932.5    0.00 
 207    8:20   0.44   93.1    13    4.1   196     7.5   932.5    0.00 
 207    8:30   0.47   93.5    13    3.5   191     7.2   932.4    0.00 
 207    8:40   0.48   94.1    13    4.0   198     7.5   932.5    0.00 
 207    8:50   0.50   95.1    12    4.3   203     8.3   932.4    0.00 
 207    9:00   0.52   95.8    12    2.7   203     7.0   932.4    0.00 
 207    9:10   0.54   96.4    12    3.8   191    15.3   932.5    0.00 
 207    9:20   0.56   96.7    12    3.2   171     8.4   932.5    0.00 
 207    9:30   0.57   97.2    12    3.1   208     7.7   932.6    0.00 
 207    9:40   0.59   97.5    12    3.9   189     8.6   932.6    0.00 
 207    9:50   0.61   98.4    11    2.9   169     7.4   932.6    0.00 
 207   10:00   0.62   99.4    11    2.5   118     5.4   932.6    0.00 
 207   10:10   0.64  100.1    11    5.0   193     9.5   932.6    0.00 
 207   10:20   0.65  100.0    11    5.2   169     9.0   932.6    0.00 
 207   10:30   0.66  101.1    10    5.6   187    13.1   932.6    0.00 
 207   10:40   0.67  102.1    10    4.9   186     9.4   932.5    0.00 
 207   10:50   0.68  101.8    10    5.5   191    10.1   932.5    0.00 
 207   11:00   0.69  102.7    10    4.1   196    11.0   932.4    0.00 
 207   11:10   0.69  103.2    10    4.9   203    10.4   932.3    0.00 
 207   11:20   0.70  104.1     9    6.4   194    13.4   932.2    0.00 
 207   11:30   0.71  104.5     8    7.8   192    15.1   932.1    0.00 
 207   11:40   0.72  104.3     8    8.2   196    16.0   932.0    0.00 
 207   11:50   0.72  104.6     8    8.6   191    18.0   931.9    0.00 
 207   12:00   0.72  105.1     8    7.9   180    15.1   931.9    0.00 
 207   12:10   0.72  105.2     8    9.2   186    16.7   931.8    0.00 
 207   12:20   0.72  105.1     8    9.8   187    17.1   931.7    0.00 
 207   12:30   0.71  105.7     8    8.5   196    16.3   931.6    0.00 
 207   12:40   0.71  106.1     8    8.0   190    17.2   931.5    0.00 
 207   12:50   0.70  106.4     8    9.0   183    15.7   931.5    0.00 
 207   13:00   0.69  106.2     8    7.4   168    15.6   931.4    0.00 
 207   13:10   0.68  106.9     8    8.5   173    14.5   931.2    0.00 
 207   13:20   0.67  106.7     8    7.5   167    14.2   931.0    0.00 
 207   13:30   0.66  107.1     8    8.3   164    17.4   930.9    0.00 
 207   13:40   0.65  107.2     8    8.1   168    13.5   930.7    0.00 
 207   13:50   0.64  107.6     8    7.8   158    18.7   930.6    0.00 
 207   14:00   0.62  108.1     8    7.3   168    17.2   930.5    0.00 
 207   14:10   0.61  108.5     8    7.1   184    13.7   930.3    0.00 
 207   14:20   0.60  108.6     8    7.3   170    14.5   930.2    0.00 
 207   14:30   0.58  108.2     8    7.6   175    15.2   930.1    0.00 
 207   14:40   0.57  108.8     8    7.2   169    13.2   929.9    0.00 
 207   14:50   0.54  108.3     8    7.4   164    14.5   929.8    0.00 
 207   15:00   0.52  108.3     8    7.6   162    14.2   929.8    0.00 
 207   15:10   0.51  108.0     8    8.1   169    15.2   929.7    0.00 
 207   15:20   0.49  108.6     8    6.7   166    14.5   929.5    0.00 
 207   15:30   0.47  108.8     8    6.7   179    13.4   929.4    0.00 
 207   15:40   0.45  108.5     8    6.4   177    10.9   929.3    0.00 

Return to Rogers Spring graphs page.


Western Regional Climate Center,wrcc@dri.edu